createdAt,value
2022-11-02T00:06:53.806Z,14.05
2022-11-02T00:16:57.821Z,13.96
2022-11-02T00:27:00.988Z,13.84
2022-11-02T00:37:05.566Z,13.79
2022-11-02T00:47:08.221Z,13.81
2022-11-02T00:57:12.193Z,14.13
2022-11-02T01:07:14.889Z,14.17
2022-11-02T01:17:19.545Z,14.25
2022-11-02T01:27:22.323Z,13.86
2022-11-02T01:37:26.332Z,13.89
2022-11-02T01:47:32.313Z,13.80
2022-11-02T01:57:37.486Z,13.84
2022-11-02T02:07:40.947Z,13.88
2022-11-02T02:17:50.428Z,14.15
2022-11-02T02:28:07.705Z,14.24
2022-11-02T02:38:14.696Z,14.39
2022-11-02T02:48:21.418Z,14.42
2022-11-02T02:58:26.573Z,14.43
2022-11-02T03:08:32.720Z,14.35
2022-11-02T03:18:45.784Z,14.32
2022-11-02T03:29:00.979Z,13.08
2022-11-02T03:39:09.079Z,12.37
2022-11-02T03:49:16.483Z,12.40
2022-11-02T03:59:19.393Z,12.60
2022-11-02T04:09:23.481Z,12.50
2022-11-02T04:19:28.971Z,12.51
2022-11-02T04:29:32.955Z,12.49
2022-11-02T04:39:35.609Z,12.48
2022-11-02T04:49:39.558Z,12.35
2022-11-02T04:59:42.198Z,12.77
2022-11-02T05:09:46.202Z,12.77
2022-11-02T05:19:48.876Z,12.87
2022-11-02T05:29:52.940Z,12.88
2022-11-02T05:39:55.863Z,12.72
2022-11-02T05:49:59.804Z,12.62
2022-11-02T06:00:02.564Z,12.73
2022-11-02T06:10:08.117Z,12.99
2022-11-02T06:20:11.354Z,13.10
2022-11-02T06:30:15.459Z,13.11
2022-11-02T06:40:21.367Z,13.10
2022-11-02T06:50:29.648Z,12.93
2022-11-02T07:00:32.492Z,12.90
2022-11-02T07:10:36.570Z,12.92
2022-11-02T07:20:39.449Z,12.92
2022-11-02T07:30:44.702Z,13.19
2022-11-02T07:40:50.688Z,13.21
2022-11-02T07:50:54.748Z,13.40
2022-11-02T08:00:59.972Z,13.58
2022-11-02T08:11:10.150Z,13.44
2022-11-02T08:21:12.831Z,13.20
2022-11-02T08:31:18.736Z,13.38
2022-11-02T08:41:21.416Z,13.00
2022-11-02T08:51:25.385Z,13.24
2022-11-02T09:01:28.299Z,13.38
2022-11-02T09:11:32.418Z,13.74
2022-11-02T09:21:35.072Z,13.85
2022-11-02T09:31:39.045Z,13.92
2022-11-02T09:41:48.171Z,14.09
2022-11-02T09:51:54.209Z,14.67
2022-11-02T10:02:04.225Z,14.94
2022-11-02T10:12:10.119Z,14.51
2022-11-02T10:22:15.665Z,14.89
2022-11-02T10:32:20.037Z,14.68
2022-11-02T10:42:42.977Z,14.62
2022-11-02T10:52:47.926Z,14.98
2022-11-02T11:03:03.997Z,16.88
2022-11-02T11:23:45.577Z,18.05
2022-11-02T11:33:52.801Z,19.82
2022-11-02T11:43:56.036Z,20.73
2022-11-02T11:54:20.893Z,26.99
2022-11-02T12:04:32.008Z,22.96
2022-11-02T12:14:52.868Z,18.20
2022-11-02T12:25:32.398Z,16.90
2022-11-02T12:36:01.106Z,19.83
2022-11-02T12:46:11.286Z,18.50
2022-11-02T12:56:20.598Z,15.82
2022-11-02T13:06:28.189Z,16.87
2022-11-02T13:16:40.745Z,17.38
2022-11-02T13:26:44.969Z,16.02
2022-11-02T13:36:50.010Z,15.91
2022-11-02T13:47:06.199Z,16.80
2022-11-02T13:57:26.018Z,17.55
2022-11-02T14:07:33.881Z,16.96
2022-11-02T14:28:32.323Z,15.39
2022-11-02T14:38:47.117Z,15.22
2022-11-02T14:48:53.264Z,15.23
2022-11-02T14:58:58.448Z,14.98
2022-11-02T15:09:04.634Z,14.87
2022-11-02T15:19:36.914Z,14.65
2022-11-02T15:29:44.849Z,14.36
2022-11-02T15:39:51.570Z,14.23
2022-11-02T15:50:15.855Z,13.94
2022-11-02T16:00:19.906Z,13.71
2022-11-02T16:10:27.541Z,13.50
2022-11-02T16:20:31.666Z,13.29
2022-11-02T16:30:35.713Z,13.22
2022-11-02T16:40:38.577Z,13.07
2022-11-02T16:50:42.643Z,12.89
2022-11-02T17:01:00.584Z,12.79
2022-11-02T17:11:06.653Z,12.60
2022-11-02T17:21:28.278Z,12.49
2022-11-02T17:31:35.449Z,12.41
2022-11-02T17:41:55.781Z,12.46
2022-11-02T17:51:59.761Z,12.44
2022-11-02T18:02:02.525Z,12.37
2022-11-02T18:12:07.049Z,12.46
2022-11-02T18:22:10.401Z,12.60
2022-11-02T18:32:14.652Z,12.50
2022-11-02T18:42:17.291Z,12.48
2022-11-02T18:52:22.502Z,12.48
2022-11-02T19:02:25.397Z,12.59
2022-11-02T19:12:30.521Z,12.62
2022-11-02T19:22:33.407Z,12.61
2022-11-02T19:32:37.413Z,12.62
2022-11-02T19:42:41.343Z,12.58
2022-11-02T19:52:46.253Z,12.53
2022-11-02T20:02:50.344Z,12.45
2022-11-02T20:12:54.655Z,12.57
2022-11-02T20:22:57.274Z,12.40
2022-11-02T20:33:01.286Z,12.48
2022-11-02T20:43:04.091Z,12.43
2022-11-02T20:53:08.471Z,12.49
2022-11-02T21:03:11.173Z,12.58
2022-11-02T21:13:33.251Z,12.51
2022-11-02T21:23:36.126Z,12.53
2022-11-02T21:33:40.120Z,12.61
2022-11-02T21:43:42.814Z,12.29
2022-11-02T21:53:47.890Z,12.32
2022-11-02T22:03:51.909Z,12.33
2022-11-02T22:13:57.541Z,12.36
2022-11-02T22:24:00.461Z,12.44
2022-11-02T22:34:06.507Z,12.35
2022-11-02T22:44:10.922Z,12.35
2022-11-02T22:54:16.574Z,12.26
2022-11-02T23:04:19.265Z,12.26
2022-11-02T23:14:23.250Z,12.41
2022-11-02T23:24:43.537Z,12.25
2022-11-02T23:35:04.811Z,12.16
2022-11-02T23:45:08.767Z,12.20
2022-11-02T23:55:34.413Z,12.17
